Brule, Wisconsin
Current Conditions -  °F | °C
As of 9:55 AM on Sunday 21 Dec 2014 (Local Time) from KOLG Reporting Station
Overcast Overcast  
Wind Chill: 25°   Ceiling: 900
Heat Index: 32°   Visibility: 4mi
Dew Point: 30°   Wind: 8mph
Humidity: 93%   Direction: 160°SSE
Pressure: 29.89"   Gusts: 16mph
Location:  46.55°N, 91.58°W
Report Text: KOLG 211555Z AUTO 16007G14KT 4SM OVC009 00/M01 A2989 RMK AO1
Loading
Personal Weather Stations






























Interactive Weather Map New forecast layout! Learn more

10-Day Weather Forecast

Advertisements
Track Severe Weather on mobile